Karinya Fr699 — MAUA8 — position and weather

sailwx.info

Track history (hours):
 
Tides and Currents Weather Stations Pressure Air Temp Water Temp Dewpoint Dewpoint Depression Visibility Wind Speed Wind Dir Waves Ship Positions

Karinya Fr699

Last reported at 2015-Mar-05 15:33 UTC. Time now 2015-Mar-06 12:37 UTC.
Position N 57°42' W 002°00'.

Length 16 m.

MMSI: 235018981.

Date/timePositionNaut miles runAvg speedWind from/ knotsBaromVisibWave heightAir tempDewpointWater temp
2015-Mar-05 15:33N 57°42' W 002°00'2 2.5
2015-Mar-05 14:34N 57°44' W 002°00'2 2.5
2015-Mar-05 13:34N 57°42' W 002°00'0 0.0
2015-Mar-03 18:33N 57°42' W 002°00'0 0.0
2015-Mar-03 17:33N 57°42' W 002°00'0 0.0
2015-Mar-03 16:33N 57°42' W 002°00'0 0.0
2015-Mar-03 15:33N 57°42' W 002°00'0 0.0
2015-Mar-03 14:33N 57°42' W 002°00'2 2.1
2015-Mar-03 13:33N 57°44' W 002°00'3 0.3
2015-Mar-03 04:05N 57°44' W 002°05'4 7.5
2015-Mar-03 03:34N 57°42' W 001°59'1 0.8
2015-Mar-03 02:33N 57°42' W 002°00'0 0.0
2015-Mar-03 01:33N 57°42' W 002°00'0 0.0
2015-Mar-03 00:33N 57°42' W 002°00'0 0.0
2015-Mar-02 23:33N 57°42' W 002°00'0 0.0
2015-Mar-02 22:33N 57°42' W 002°00'  
Track history (hours):
 
Tides and Currents Weather Stations Pressure Air Temp Water Temp Dewpoint Dewpoint Depression Visibility Wind Speed Wind Dir Waves Ship Positions

Karinya Fr699

Last reported at 2015-Mar-05 15:33 UTC. Time now 2015-Mar-06 12:37 UTC.
Position N 57°42' W 002°00'.

Length 16 m.

MMSI: 235018981.

Date/timePositionNaut miles runAvg speedWind from/ knotsBaromVisibWave heightAir tempDewpointWater temp
2015-Mar-05 15:33N 57°42' W 002°00'2 2.5
2015-Mar-05 14:34N 57°44' W 002°00'2 2.5
2015-Mar-05 13:34N 57°42' W 002°00'0 0.0
2015-Mar-03 18:33N 57°42' W 002°00'0 0.0
2015-Mar-03 17:33N 57°42' W 002°00'0 0.0
2015-Mar-03 16:33N 57°42' W 002°00'0 0.0
2015-Mar-03 15:33N 57°42' W 002°00'0 0.0
2015-Mar-03 14:33N 57°42' W 002°00'2 2.1
2015-Mar-03 13:33N 57°44' W 002°00'3 0.3
2015-Mar-03 04:05N 57°44' W 002°05'4 7.5
2015-Mar-03 03:34N 57°42' W 001°59'1 0.8
2015-Mar-03 02:33N 57°42' W 002°00'0 0.0
2015-Mar-03 01:33N 57°42' W 002°00'0 0.0
2015-Mar-03 00:33N 57°42' W 002°00'0 0.0
2015-Mar-02 23:33N 57°42' W 002°00'0 0.0
2015-Mar-02 22:33N 57°42' W 002°00'  

Dump ship's entire track history